createdAt,value
2018-07-23T00:00:52.750Z,21.40
2018-07-23T00:02:55.884Z,21.40
2018-07-23T00:04:59.116Z,21.40
2018-07-23T00:07:02.256Z,21.40
2018-07-23T00:09:06.788Z,21.40
2018-07-23T00:11:09.960Z,21.40
2018-07-23T00:13:13.190Z,21.30
2018-07-23T00:15:16.648Z,21.30
2018-07-23T00:17:19.795Z,21.30
2018-07-23T00:19:22.936Z,21.30
2018-07-23T00:21:26.083Z,21.30
2018-07-23T00:23:29.231Z,21.20
2018-07-23T00:25:32.367Z,21.20
2018-07-23T00:27:35.495Z,21.20
2018-07-23T00:29:39.284Z,21.20
2018-07-23T00:31:42.438Z,21.20
2018-07-23T00:33:45.571Z,21.20
2018-07-23T00:35:48.708Z,21.20
2018-07-23T00:37:51.837Z,21.10
2018-07-23T02:32:40.175Z,20.80
2018-07-23T02:34:43.265Z,20.70
2018-07-23T02:36:46.891Z,20.60
2018-07-23T02:38:49.989Z,20.50
2018-07-23T02:40:53.174Z,20.40
2018-07-23T02:42:56.255Z,20.40
2018-07-23T02:44:59.336Z,20.30
2018-07-23T02:47:02.425Z,20.30
2018-07-23T02:49:05.516Z,20.20
2018-07-23T02:51:08.748Z,20.20
2018-07-23T02:53:11.888Z,20.10
2018-07-23T02:57:17.968Z,20.00
2018-07-23T02:59:21.450Z,19.90
2018-07-23T03:01:24.598Z,19.90
2018-07-23T03:03:27.703Z,19.90
2018-07-23T03:05:30.863Z,19.80
2018-07-23T03:07:34.022Z,19.80
2018-07-23T03:09:37.120Z,19.70
2018-07-23T03:11:40.220Z,19.70
2018-07-23T03:13:43.360Z,19.60
2018-07-23T03:15:46.446Z,19.60
2018-07-23T03:17:49.531Z,19.50
2018-07-23T03:19:52.704Z,19.50
2018-07-23T03:21:55.806Z,19.40
2018-07-23T03:23:58.892Z,19.40
2018-07-23T03:26:01.972Z,19.40
2018-07-23T03:28:05.184Z,19.40
2018-07-23T03:30:08.307Z,19.30
2018-07-23T03:32:11.422Z,19.30
2018-07-23T03:34:14.512Z,19.20
2018-07-23T03:36:17.716Z,19.20
2018-07-23T03:38:20.807Z,19.20
2018-07-23T03:40:23.905Z,19.10
2018-07-23T03:42:26.976Z,19.10
2018-07-23T03:44:30.064Z,19.10
2018-07-23T03:46:33.190Z,19.00
2018-07-23T03:48:36.279Z,19.00
2018-07-23T03:50:39.591Z,19.00
2018-07-23T03:52:42.700Z,19.00
2018-07-23T03:54:46.141Z,19.00
2018-07-23T03:58:52.196Z,19.00
2018-07-23T04:00:55.275Z,19.00
2018-07-23T04:02:58.419Z,19.00
2018-07-23T04:05:01.547Z,19.00
2018-07-23T04:07:04.699Z,19.00
2018-07-23T04:09:08.519Z,19.00
2018-07-23T04:11:11.673Z,19.00
2018-07-23T04:13:14.814Z,19.00
2018-07-23T04:15:17.952Z,19.00
2018-07-23T04:17:21.218Z,19.10
2018-07-23T04:19:24.320Z,19.10
2018-07-23T04:21:27.472Z,19.10
2018-07-23T04:23:30.642Z,19.20
2018-07-23T04:25:33.782Z,19.20
2018-07-23T04:27:36.929Z,19.20
2018-07-23T04:29:40.072Z,19.20
2018-07-23T04:31:43.268Z,19.20
2018-07-23T04:33:46.399Z,19.20
2018-07-23T04:35:49.532Z,19.30
2018-07-23T04:37:52.870Z,19.30
2018-07-23T04:39:55.974Z,19.40
2018-07-23T04:41:59.138Z,19.40
2018-07-23T04:48:08.554Z,19.50
2018-07-23T04:50:11.691Z,19.50
2018-07-23T04:52:14.871Z,19.60
2018-07-23T04:54:18.012Z,19.60
2018-07-23T04:56:21.179Z,19.60
2018-07-23T04:58:24.395Z,19.60
2018-07-23T05:00:27.539Z,19.70
2018-07-23T05:02:30.682Z,19.70
2018-07-23T05:04:33.824Z,19.80
2018-07-23T05:06:37.095Z,19.80
2018-07-23T05:08:40.251Z,19.90
2018-07-23T05:10:43.403Z,19.90
2018-07-23T05:12:46.543Z,20.00
2018-07-23T05:14:49.683Z,20.20
2018-07-23T05:18:55.808Z,20.80
2018-07-23T05:20:58.947Z,21.10
2018-07-23T05:23:02.109Z,21.80
2018-07-23T05:25:05.240Z,22.50
2018-07-23T05:27:08.612Z,23.90
2018-07-23T05:29:11.784Z,23.90
2018-07-23T05:31:15.037Z,24.40
2018-07-23T05:33:18.175Z,25.00
2018-07-23T05:35:21.448Z,25.50
2018-07-23T05:39:27.512Z,26.70
2018-07-23T05:41:30.659Z,27.00
2018-07-23T05:43:33.804Z,27.50
2018-07-23T05:47:39.920Z,28.20
2018-07-23T05:49:43.079Z,28.60
2018-07-23T05:53:49.196Z,29.20
2018-07-23T05:55:52.332Z,29.50
2018-07-23T05:57:55.588Z,29.70
2018-07-23T05:59:58.729Z,30.00
2018-07-23T06:02:01.896Z,30.20
2018-07-23T06:04:05.119Z,30.50
2018-07-23T06:06:08.264Z,30.70
2018-07-23T06:08:12.229Z,30.80
2018-07-23T06:10:15.431Z,31.00
2018-07-23T06:12:18.639Z,31.20
2018-07-23T06:14:21.772Z,31.50
2018-07-23T06:16:24.919Z,31.60
2018-07-23T06:20:31.059Z,31.80
2018-07-23T06:22:34.215Z,32.10
2018-07-23T06:24:37.396Z,32.20
2018-07-23T06:26:40.537Z,32.20
2018-07-23T06:28:43.700Z,32.30
2018-07-23T06:30:46.823Z,32.30
2018-07-23T06:32:49.972Z,32.50
2018-07-23T06:34:53.170Z,32.60
2018-07-23T06:36:56.299Z,32.60
2018-07-23T06:38:59.487Z,32.70
2018-07-23T06:41:02.624Z,32.80
2018-07-23T06:43:05.788Z,32.70
2018-07-23T06:45:08.987Z,32.80
2018-07-23T06:47:12.244Z,32.80
2018-07-23T06:49:15.399Z,32.70
2018-07-23T06:51:18.764Z,32.60
2018-07-23T06:53:21.924Z,32.60
2018-07-23T06:55:25.048Z,32.70
2018-07-23T06:57:28.237Z,32.40
2018-07-23T06:59:31.343Z,32.10
2018-07-23T07:01:34.476Z,31.80
2018-07-23T07:03:37.587Z,31.30
2018-07-23T07:09:46.534Z,29.90
2018-07-23T07:11:49.610Z,29.40
2018-07-23T07:20:01.648Z,28.10
2018-07-23T07:24:07.632Z,27.40
2018-07-23T07:30:16.553Z,27.30
2018-07-23T07:36:25.441Z,26.90
2018-07-23T07:48:43.967Z,26.50
2018-07-23T07:50:47.049Z,26.60
2018-07-23T07:56:55.919Z,26.40
2018-07-23T08:01:02.923Z,26.50
2018-07-23T08:03:06.015Z,26.60
2018-07-23T08:05:09.100Z,26.70
2018-07-23T08:07:12.259Z,26.70
2018-07-23T08:11:18.271Z,26.80
2018-07-23T08:15:24.241Z,26.80
2018-07-23T08:17:27.327Z,26.80
2018-07-23T08:19:30.435Z,26.90
2018-07-23T08:21:33.546Z,26.90
2018-07-23T08:23:36.655Z,26.90
2018-07-23T08:25:39.747Z,26.90
2018-07-23T08:27:42.864Z,26.90
2018-07-23T08:29:45.966Z,26.90
2018-07-23T08:50:15.419Z,26.50
2018-07-23T08:52:18.551Z,26.50
2018-07-23T08:54:21.653Z,26.60
2018-07-23T08:56:24.734Z,26.70
2018-07-23T08:58:27.823Z,26.80
2018-07-23T09:00:30.916Z,26.80
2018-07-23T09:02:34.231Z,26.90
2018-07-23T09:04:37.483Z,26.80
2018-07-23T09:10:46.525Z,26.50
2018-07-23T09:12:49.700Z,26.70
2018-07-23T09:14:52.843Z,26.70
2018-07-23T09:16:55.976Z,26.70
2018-07-23T09:18:59.115Z,26.80
2018-07-23T09:21:02.237Z,27.00
2018-07-23T09:23:05.430Z,27.00
2018-07-23T09:25:08.556Z,27.20
2018-07-23T09:27:11.687Z,27.30
2018-07-23T09:31:17.784Z,27.50
2018-07-23T09:33:22.123Z,27.50
2018-07-23T09:35:25.264Z,27.50
2018-07-23T09:37:28.395Z,27.60
2018-07-23T09:39:31.527Z,27.60
2018-07-23T09:41:34.663Z,27.70
2018-07-23T09:43:37.799Z,27.60
2018-07-23T09:45:40.944Z,27.60
2018-07-23T09:47:44.431Z,27.60
2018-07-23T09:49:47.556Z,27.60
2018-07-23T09:51:50.689Z,27.70
2018-07-23T09:53:53.849Z,27.50
2018-07-23T09:55:56.999Z,27.40
2018-07-23T09:58:00.132Z,27.40
2018-07-23T10:02:06.188Z,27.50
2018-07-23T10:04:09.285Z,27.60
2018-07-23T10:06:12.371Z,27.70
2018-07-23T10:08:15.452Z,27.70
2018-07-23T10:10:18.560Z,27.90
2018-07-23T10:12:21.651Z,27.90
2018-07-23T10:14:24.734Z,28.00
2018-07-23T10:16:27.831Z,28.10
2018-07-23T10:18:30.907Z,28.10
2018-07-23T10:20:33.991Z,28.00
2018-07-23T10:22:37.083Z,27.70
2018-07-23T10:24:40.176Z,27.60
2018-07-23T10:26:43.271Z,27.70
2018-07-23T10:30:49.319Z,27.80
2018-07-23T10:32:52.433Z,27.90
2018-07-23T10:34:55.516Z,28.10
2018-07-23T10:36:58.599Z,28.10
2018-07-23T10:39:01.719Z,28.20
2018-07-23T10:41:04.843Z,28.30
2018-07-23T10:43:08.076Z,28.10
2018-07-23T10:45:11.171Z,28.00
2018-07-23T10:47:14.280Z,27.90
2018-07-23T10:49:17.371Z,27.90
2018-07-23T10:51:20.475Z,27.70
2018-07-23T10:53:23.579Z,27.80
2018-07-23T10:55:26.693Z,27.80
2018-07-23T10:59:32.723Z,28.10
2018-07-23T11:01:35.803Z,28.10
2018-07-23T11:03:38.955Z,28.20
2018-07-23T11:05:42.109Z,28.20
2018-07-23T11:07:45.236Z,28.20
2018-07-23T11:09:48.529Z,28.20
2018-07-23T11:11:51.668Z,28.40
2018-07-23T11:13:54.801Z,28.40
2018-07-23T11:18:00.830Z,28.60
2018-07-23T11:20:04.443Z,28.70
2018-07-23T11:22:07.592Z,28.70
2018-07-23T11:24:10.738Z,28.60
2018-07-23T11:26:13.920Z,28.60
2018-07-23T11:28:17.032Z,28.50
2018-07-23T11:30:20.163Z,28.50
2018-07-23T11:32:23.312Z,28.50
2018-07-23T11:36:29.470Z,28.70
2018-07-23T11:38:32.560Z,28.80
2018-07-23T11:40:35.691Z,28.80
2018-07-23T11:42:38.865Z,28.80
2018-07-23T11:44:41.955Z,28.90
2018-07-23T11:46:45.204Z,29.00
2018-07-23T11:48:48.360Z,29.00
2018-07-23T11:54:57.312Z,28.80
2018-07-23T11:57:00.500Z,28.70
2018-07-23T11:59:03.602Z,28.50
2018-07-23T12:01:06.904Z,28.40
2018-07-23T12:03:09.982Z,28.30
2018-07-23T12:05:13.056Z,28.30
2018-07-23T12:07:16.147Z,28.20
2018-07-23T12:09:19.276Z,28.10
2018-07-23T12:11:22.346Z,28.30
2018-07-23T12:13:25.431Z,28.40
2018-07-23T12:15:28.534Z,28.60
2018-07-23T12:17:31.650Z,28.80
2018-07-23T12:19:34.715Z,29.00
2018-07-23T12:21:37.810Z,29.20
2018-07-23T12:23:40.912Z,29.40
2018-07-23T12:25:43.993Z,29.50
2018-07-23T12:27:47.080Z,29.50
2018-07-23T12:29:51.184Z,29.60
2018-07-23T12:31:54.299Z,29.70
2018-07-23T12:33:57.379Z,29.70
2018-07-23T12:38:03.436Z,29.80
2018-07-23T12:40:06.744Z,29.90
2018-07-23T12:42:09.795Z,29.90
2018-07-23T12:44:12.882Z,29.90
2018-07-23T12:46:15.991Z,30.00
2018-07-23T12:50:22.048Z,29.90
2018-07-23T12:52:25.148Z,29.90
2018-07-23T12:54:28.236Z,29.90
2018-07-23T12:58:34.275Z,30.20
2018-07-23T13:04:43.387Z,30.10
2018-07-23T13:06:46.523Z,30.10
2018-07-23T13:08:49.663Z,29.90
2018-07-23T13:10:52.797Z,30.00
2018-07-23T13:17:02.494Z,30.00
2018-07-23T13:19:05.666Z,29.80
2018-07-23T13:21:09.447Z,29.80
2018-07-23T13:23:12.583Z,29.80
2018-07-23T13:27:18.637Z,30.10
2018-07-23T13:33:27.839Z,30.50
2018-07-23T13:35:30.968Z,30.40
2018-07-23T13:37:34.104Z,30.30
2018-07-23T13:39:37.244Z,30.40
2018-07-23T13:41:40.480Z,30.40
2018-07-23T13:43:43.634Z,30.50
2018-07-23T13:45:46.755Z,30.60
2018-07-23T13:49:52.875Z,30.60
2018-07-23T13:51:56.044Z,30.50
2018-07-23T13:53:59.175Z,30.60
2018-07-23T13:56:02.296Z,30.60
2018-07-23T13:58:05.427Z,30.70
2018-07-23T14:00:08.555Z,30.70
2018-07-23T14:02:11.759Z,30.70
2018-07-23T14:04:14.872Z,30.70
2018-07-23T14:06:17.935Z,30.70
2018-07-23T14:08:21.025Z,30.80
2018-07-23T14:10:24.117Z,30.80
2018-07-23T14:12:27.204Z,30.90
2018-07-23T14:14:30.288Z,30.80
2018-07-23T14:16:33.523Z,30.70
2018-07-23T14:18:36.604Z,30.60
2018-07-23T14:20:39.687Z,30.60
2018-07-23T14:22:42.813Z,30.70
2018-07-23T14:24:45.879Z,30.70
2018-07-23T14:26:48.963Z,30.70
2018-07-23T14:28:52.121Z,30.70
2018-07-23T14:30:55.207Z,30.70
2018-07-23T14:32:58.291Z,30.80
2018-07-23T14:35:01.388Z,30.70
2018-07-23T14:37:04.659Z,30.60
2018-07-23T14:39:11.247Z,30.50
2018-07-23T14:41:14.324Z,30.50
2018-07-23T14:43:17.446Z,30.50
2018-07-23T14:45:20.551Z,30.60
2018-07-23T14:47:23.659Z,30.70
2018-07-23T14:49:27.028Z,30.80
2018-07-23T14:51:30.268Z,30.90
2018-07-23T14:53:33.462Z,31.00
2018-07-23T14:55:36.544Z,31.10
2018-07-23T14:57:39.685Z,31.10
2018-07-23T15:01:45.611Z,31.20
2018-07-23T15:05:51.686Z,31.10
2018-07-23T15:07:54.771Z,31.10
2018-07-23T15:09:57.848Z,31.00
2018-07-23T15:12:00.960Z,31.00
2018-07-23T15:16:07.083Z,31.00
2018-07-23T15:18:10.153Z,31.10
2018-07-23T15:22:16.185Z,31.50
2018-07-23T15:24:19.228Z,31.50
2018-07-23T15:26:22.303Z,31.50
2018-07-23T15:32:31.242Z,31.40
2018-07-23T15:36:37.228Z,31.40
2018-07-23T15:40:43.171Z,31.40
2018-07-23T15:42:46.336Z,31.40
2018-07-23T15:46:52.319Z,31.30
2018-07-23T15:48:55.395Z,31.40
2018-07-23T15:53:01.445Z,31.50
2018-07-23T15:55:04.602Z,31.50
2018-07-23T15:57:07.771Z,31.40
2018-07-23T15:59:10.869Z,31.40
2018-07-23T16:03:16.903Z,31.50
2018-07-23T16:05:20.058Z,31.50
2018-07-23T16:07:23.083Z,31.60
2018-07-23T16:09:26.176Z,31.70
2018-07-23T16:11:29.276Z,31.70
2018-07-23T16:13:32.364Z,31.70
2018-07-23T16:15:35.524Z,31.70
2018-07-23T16:17:38.901Z,31.70
2018-07-23T16:19:41.992Z,31.80
2018-07-23T16:21:45.104Z,31.70
2018-07-23T16:23:48.200Z,31.70
2018-07-23T16:27:55.269Z,31.70
2018-07-23T16:29:58.375Z,31.70
2018-07-23T16:32:01.640Z,31.70
2018-07-23T16:34:04.751Z,31.70
2018-07-23T16:36:07.819Z,31.70
2018-07-23T16:38:10.924Z,31.70
2018-07-23T16:40:13.998Z,31.70
2018-07-23T16:42:17.995Z,31.70
2018-07-23T16:44:21.079Z,31.70
2018-07-23T16:46:24.209Z,31.70
2018-07-23T16:48:27.242Z,31.60
2018-07-23T16:50:30.350Z,31.60
2018-07-23T16:54:36.371Z,31.50
2018-07-23T16:56:39.464Z,31.50
2018-07-23T16:58:42.539Z,31.50
2018-07-23T17:00:45.628Z,31.50
2018-07-23T17:02:49.235Z,31.50
2018-07-23T17:04:52.379Z,31.40
2018-07-23T17:06:55.537Z,31.40
2018-07-23T17:08:58.655Z,31.40
2018-07-23T17:11:02.408Z,31.50
2018-07-23T17:13:05.500Z,31.50
2018-07-23T17:15:08.655Z,31.50
2018-07-23T17:17:11.799Z,31.50
2018-07-23T17:19:14.931Z,31.50
2018-07-23T17:21:18.079Z,31.50
2018-07-23T17:23:21.263Z,31.50
2018-07-23T17:25:24.395Z,31.40
2018-07-23T17:27:27.547Z,31.40
2018-07-23T17:29:30.864Z,31.30
2018-07-23T17:31:33.999Z,31.20
2018-07-23T17:33:37.131Z,31.20
2018-07-23T17:35:40.315Z,31.20
2018-07-23T17:37:43.417Z,31.20
2018-07-23T17:39:46.543Z,31.20
2018-07-23T17:41:49.680Z,31.20
2018-07-23T17:43:52.843Z,31.20
2018-07-23T17:45:55.998Z,31.20
2018-07-23T17:47:59.131Z,31.10
2018-07-23T17:50:02.268Z,31.10
2018-07-23T17:52:05.456Z,31.10
2018-07-23T17:54:08.691Z,31.10
2018-07-23T17:56:11.829Z,31.10
2018-07-23T18:14:38.415Z,34.70
2018-07-23T18:18:44.535Z,36.20
2018-07-23T18:20:47.615Z,37.10
2018-07-23T18:22:50.729Z,38.10
2018-07-23T18:24:53.804Z,38.70
2018-07-23T18:26:56.892Z,38.70
2018-07-23T18:28:59.975Z,38.00
2018-07-23T18:31:03.092Z,38.40
2018-07-23T18:33:06.159Z,39.00
2018-07-23T18:35:09.295Z,39.40
2018-07-23T18:39:15.322Z,39.70
2018-07-23T18:41:18.511Z,39.50
2018-07-23T18:43:21.693Z,39.60
2018-07-23T18:45:24.775Z,39.50
2018-07-23T18:47:27.848Z,39.40
2018-07-23T18:49:43.640Z,39.20
2018-07-23T18:51:49.511Z,38.90
2018-07-23T18:53:52.634Z,38.60
2018-07-23T18:55:55.732Z,37.50
2018-07-23T19:02:06.147Z,33.80
2018-07-23T19:06:12.663Z,32.30
2018-07-23T19:10:18.692Z,31.60
2018-07-23T19:12:21.787Z,31.20
2018-07-23T19:14:24.901Z,30.80
2018-07-23T19:18:30.921Z,30.20
2018-07-23T19:26:42.877Z,29.50
2018-07-23T19:30:48.828Z,29.10
2018-07-23T19:34:54.887Z,28.70
2018-07-23T19:36:57.983Z,28.60
2018-07-23T19:39:01.359Z,28.50
2018-07-23T19:41:04.478Z,28.30
2018-07-23T19:43:07.523Z,28.20
2018-07-23T19:45:10.619Z,28.00
2018-07-23T19:47:13.693Z,27.90
2018-07-23T19:49:16.804Z,27.80
2018-07-23T19:51:19.875Z,27.70
2018-07-23T19:53:23.801Z,27.60
2018-07-23T19:55:26.874Z,27.60
2018-07-23T19:57:29.971Z,27.50
2018-07-23T19:59:33.069Z,27.40
2018-07-23T20:01:36.167Z,27.30
2018-07-23T20:03:39.403Z,27.20
2018-07-23T20:05:42.551Z,27.10
2018-07-23T20:07:45.679Z,27.00
2018-07-23T20:09:48.829Z,26.90
2018-07-23T20:11:51.964Z,26.90
2018-07-23T20:13:55.113Z,26.80
2018-07-23T20:15:58.292Z,26.70
2018-07-23T20:18:02.295Z,26.60
2018-07-23T20:20:06.499Z,26.60
2018-07-23T20:22:09.623Z,26.50
2018-07-23T20:24:12.782Z,26.40
2018-07-23T20:26:15.919Z,26.40
2018-07-23T20:28:19.116Z,26.30
2018-07-23T20:30:22.220Z,26.20
2018-07-23T20:32:25.364Z,26.20
2018-07-23T20:34:28.536Z,26.10
2018-07-23T20:36:31.700Z,26.00
2018-07-23T20:38:35.213Z,26.00
2018-07-23T20:40:38.420Z,25.90
2018-07-23T20:42:41.504Z,25.90
2018-07-23T20:44:44.676Z,25.80
2018-07-23T20:46:47.815Z,25.80
2018-07-23T20:48:51.202Z,25.70
2018-07-23T20:50:54.559Z,25.60
2018-07-23T20:52:57.708Z,25.60
2018-07-23T20:55:00.927Z,25.50
2018-07-23T20:57:04.067Z,25.50
2018-07-23T20:59:07.305Z,25.50
2018-07-23T21:01:10.457Z,25.40
2018-07-23T21:03:13.519Z,25.30
2018-07-23T21:05:16.631Z,25.30
2018-07-23T21:07:19.723Z,25.20
2018-07-23T21:09:22.812Z,25.20
2018-07-23T21:11:25.899Z,25.10
2018-07-23T21:13:29.002Z,25.10
2018-07-23T21:15:32.090Z,25.00
2018-07-23T21:17:35.212Z,25.00
2018-07-23T21:19:38.353Z,25.00
2018-07-23T21:21:41.384Z,24.90
2018-07-23T21:23:44.480Z,24.90
2018-07-23T21:25:47.564Z,24.80
2018-07-23T21:27:50.684Z,24.80
2018-07-23T21:29:53.756Z,24.70
2018-07-23T21:31:56.835Z,24.70
2018-07-23T21:33:59.941Z,24.70
2018-07-23T21:36:03.020Z,24.70
2018-07-23T21:38:06.127Z,24.60
2018-07-23T21:40:09.899Z,24.60
2018-07-23T21:42:13.004Z,24.60
2018-07-23T21:44:16.124Z,24.50
2018-07-23T21:46:19.209Z,24.40
2018-07-23T21:48:22.311Z,24.40
2018-07-23T21:50:25.491Z,24.40
2018-07-23T21:52:28.569Z,24.30
2018-07-23T21:54:31.671Z,24.30
2018-07-23T21:56:34.891Z,24.20
2018-07-23T21:58:37.979Z,24.20
2018-07-23T22:00:41.086Z,24.20
2018-07-23T22:02:44.178Z,24.10
2018-07-23T22:04:47.240Z,24.10
2018-07-23T22:06:50.323Z,24.00
2018-07-23T22:08:55.068Z,24.00
2018-07-23T22:10:58.153Z,24.00
2018-07-23T22:15:05.981Z,23.90
2018-07-23T22:17:09.089Z,23.80
2018-07-23T22:19:12.213Z,23.80
2018-07-23T22:21:15.297Z,23.70
2018-07-23T22:23:18.566Z,23.70
2018-07-23T22:25:21.707Z,23.70
2018-07-23T22:27:24.747Z,23.70
2018-07-23T22:29:27.847Z,23.60
2018-07-23T22:31:30.936Z,23.60
2018-07-23T22:33:34.032Z,23.50
2018-07-23T22:35:37.109Z,23.50
2018-07-23T22:37:40.215Z,23.50
2018-07-23T22:41:46.255Z,23.40
2018-07-23T22:43:49.351Z,23.40
2018-07-23T22:45:52.467Z,23.40
2018-07-23T22:49:58.475Z,23.30
2018-07-23T22:52:01.571Z,23.20
2018-07-23T22:54:04.667Z,23.20
2018-07-23T23:35:04.110Z,22.40
2018-07-23T23:37:07.180Z,22.40
2018-07-23T23:39:11.581Z,22.40
2018-07-23T23:41:14.714Z,22.40
2018-07-23T23:43:17.856Z,22.30
2018-07-23T23:45:21.003Z,22.30
2018-07-23T23:47:24.132Z,22.30
2018-07-23T23:49:27.259Z,22.30
